< < Back
Terminal Aerodrome Forecast


Current Version              Previous Versions:   1  2  3  4  5  6  7  8  9  

Terminal Aerodrome Forecast

716
FTUS42 KFFC 291125
TAFATL
TAF
KATL 291125Z 2912/3018 32006KT P6SM FEW120 SCT250
     FM291700 32007KT P6SM VCSH SCT050
      TEMPO 2920/2923 6SM -TSRA BKN040CB
     FM300000 33005KT P6SM SCT100 BKN250
     FM301000 35003KT P6SM SCT120
     FM301400 03006KT P6SM FEW040=

Latest METAR

604
SAUS70 KWBC 291600 RRB
MTRATL
METAR KATL 291552Z 31006KT 10SM FEW035 SCT160 SCT250 31/24 A3004 RMK AO2
SLP159 T03110239


USA.gov is the U.S. government's official web portal to all federal, state and local government web resources and services.